VLVTVDPP

Guest
Details From VLVT - Vientiane Wattay
To VDPP - Phnom Penh Intl
Flight Number -
Tags generated
Created
Modified
Stats Distance 453 nm / 839 km
Max Altitude 35,000 ft / 10,668 m
Waypoints 9
Social Downloads 1
Likes 0
Share VATSIM

Download

Looking for another format? Having issues loading an existing format? Contact us
Advertisement - Login to hide

Notes

Basic altitude profile: - Ascent Rate: 2500ft/min - Ascent Speed: 250kts - Cruise Altitude: 35000ft - Cruise Speed: 420kts - Descent Rate: 1500ft/min - Descent Speed: 250kts Options: - Use NATs: yes - Use PACOTS: yes - Use low airways: yes - Use high airways: yes

Route

VLVT UDN R470 UBL 1500N10500E LEKOB B329 PNH VDPP

ID Type Via Altitude Latitude Longitude Leg Dist Tot Dist Heading (true) Name
O VLVT APT - 0 ft / 0 m 17.98834˚ 102.56322˚ - 0 nm - Vientiane Wattay
UDN VOR - 13,600 ft / 4,145 m 17.38450˚ 102.77501˚ 38 nm 38 nm 161° / 162° UDON VOR-DME
ROT VOR R470 (AWY-LO) 35,000 ft / 10,668 m 16.11683˚ 103.77207˚ 95 nm 133 nm 143° / 143° ROI ET VOR-DME
UBL VOR R470 (AWY-HI) 35,000 ft / 10,668 m 15.24520˚ 104.86592˚ 82 nm 215 nm 129° / 130° UBON VOR-DME
1500N10500E LATLON - 35,000 ft / 10,668 m 15.00000˚ 105.00000˚ 16 nm 232 nm 152° / 152° -
LEKOB FIX - 33,300 ft / 10,150 m 14.13000˚ 105.52000˚ 60 nm 292 nm 150° / 150° -
VIBUN FIX B329 (AWY-HI) 28,900 ft / 8,809 m 13.79667˚ 105.43167˚ 20 nm 313 nm 194° / 194° -
PNH VOR B329 (AWY-LO) 10,000 ft / 3,048 m 11.54667˚ 104.84167˚ 139 nm 452 nm 194° / 194° PHNOM PENH VOR-DME
O VDPP APT - 0 ft / 0 m 11.54654˚ 104.84414˚ 0 nm 452 nm 93° / 93° Phnom Penh Intl

Altitude Profile

Advertisement - Login to hide

Weather


0- 5 10 15 20 25 30 35+ Temperature / ° C

Clouds and Precipitation
Forecast for 2017-12-18 00:00 UTC. Updated 2 hours ago

Ground ~20,000 ft ~40,000 ft Winds

VLVT

Details ICAO VLVT (VTE)
Name Vientiane Wattay
Region Laos
Timezone Asia/Vientiane (UTC+7.0)
Stats Elevation 1,850 ft / 564 m (AMSL)
Location 17.988343° 102.563222°
Runways 1
Magnetic Variation 0.900° W

METAR

VLVT 180100Z 12006KT 5000 BR OVC050 16/09 Q1024 NOSIG

Decode

TAF

TAF TAF VLVT 172300Z 1800/1824 09006KT 7000 FEW020 BKN050 TEMPO 1800/1803 4000 BR BKN050

Decode

Departure Runways

ID Width Length Bearing (true) Bearing (mag) Surface Threshold Offset Overrun Length
13 148 ft / 45 m 9,862 ft / 3,006 m 135.42° 136.32° Asphalt 0 ft / 0 m 0 ft / 0 m
31 148 ft / 45 m 9,862 ft / 3,006 m 315.42° 316.32° Asphalt 0 ft / 0 m 0 ft / 0 m

VDPP

Details ICAO VDPP (PNH)
Name Phnom Penh Intl
Region Cambodia
Timezone Asia/Phnom_Penh (UTC+7.0)
Stats Elevation 40 ft / 12 m (AMSL)
Location 11.546542° 104.844142°
Runways 1
Magnetic Variation 0.493° W

METAR

VDPP 180100Z 02009KT 340V050 9999 FEW017 21/15 Q1016

Decode

TAF

TAF VDPP 172300Z 1800/1818 02010KT 9999 SCT017= TAF VDSR 172300Z 1800/1818 02010KT 9999 SCT017

Decode

Destination Runways

ID Width Length Bearing (true) Bearing (mag) Surface Threshold Offset Overrun Length
05 144 ft / 44 m 9,815 ft / 2,992 m 45.61° 46.10° Asphalt 400 ft / 122 m 0 ft / 0 m
23 144 ft / 44 m 9,815 ft / 2,992 m 225.61° 226.10° Asphalt 492 ft / 150 m 0 ft / 0 m

Approach Navaids

Runway Type Ident Frequency Range Bearing (true) Bearing (mag) Slope Elevation
23 Localiser IPNP 109.70 MHz 18 nm / 33 km 225.62° 226.11° - 40 ft / 12 m (AMSL)
23 Glidescope IPNP 109.70 MHz 10 nm / 19 km 225.61° 226.10° 3.00° 37 ft / 11 m (AMSL)

Popular Alternatives